Watkins Glen, New York
Current Conditions -  °F | °C
As of 7:53 AM on Thursday 27 Nov 2014 (Local Time) from KELM Reporting Station
Overcast Overcast  
Wind Chill: -5°   Ceiling: 4700
Heat Index: -1°   Visibility: 10mi
Dew Point: -4°   Wind: 8mph
Humidity: 82%   Direction: 290°WNW
Pressure: 30.01"   Gusts: NA
Location:  42.38°N, 76.87°W
Report Text: KELM 271253Z 29007KT 10SM SCT018 OVC047 M01/M04 A3001 RMK AO2 SNE17 SLP172 P0000 T10111039
Loading
Personal Weather Stations






























Interactive Weather Map New forecast layout! Learn more

10-Day Weather Forecast

Advertisements
Track Severe Weather on mobile